Time,TemperatureF,DewpointF,PressureIn,WindDirection,WindDirectionDegrees,WindSpeedMPH,WindSpeedGustMPH,Humidity,HourlyPrecipIn,Conditions,Clouds,dailyrainin,SoftwareType,DateUTC
2013-02-19 00:01:00,51.0,43.0,29.91,SW,223,8.0,12.0,75,0.00,,,0.00,,2013-02-19 08:01:00,
2013-02-19 00:11:00,51.0,43.0,29.91,SW,223,8.0,12.0,75,0.00,,,0.00,,2013-02-19 08:11:00,
2013-02-19 00:21:00,51.0,44.0,29.91,SSW,205,6.0,11.0,76,0.00,,,0.00,,2013-02-19 08:21:00,
2013-02-19 00:31:00,51.0,44.0,29.91,SSW,200,9.0,13.0,77,0.00,,,0.00,,2013-02-19 08:31:00,
2013-02-19 00:41:00,51.0,44.0,29.91,SSW,200,9.0,13.0,77,0.00,,,0.00,,2013-02-19 08:41:00,
2013-02-19 00:52:00,51.0,44.0,29.90,SW,222,9.0,16.0,77,0.00,,,0.00,,2013-02-19 08:52:00,
2013-02-19 01:01:00,51.0,44.0,29.91,SW,232,11.0,17.0,77,0.00,,,0.00,,2013-02-19 09:01:00,
2013-02-19 01:11:00,51.0,44.0,29.91,SW,232,11.0,17.0,77,0.00,,,0.00,,2013-02-19 09:11:00,
2013-02-19 01:21:00,50.0,43.0,29.91,SW,215,12.0,18.0,76,0.00,,,0.00,,2013-02-19 09:21:00,
2013-02-19 01:31:00,50.0,43.0,29.91,SSW,206,9.0,19.0,76,0.00,,,0.00,,2013-02-19 09:31:00,
2013-02-19 01:41:00,50.0,43.0,29.91,SSW,206,9.0,19.0,76,0.00,,,0.00,,2013-02-19 09:41:00,
2013-02-19 01:52:00,50.0,42.0,29.91,SW,219,9.0,18.0,75,0.00,,,0.00,,2013-02-19 09:52:00,
2013-02-19 02:01:00,50.0,42.0,29.90,West,260,9.0,19.0,73,0.00,,,0.00,,2013-02-19 10:01:00,
2013-02-19 02:11:00,50.0,42.0,29.90,West,260,9.0,19.0,73,0.00,,,0.00,,2013-02-19 10:11:00,
2013-02-19 02:21:00,50.0,42.0,29.89,SW,219,10.0,20.0,73,0.00,,,0.00,,2013-02-19 10:21:00,
2013-02-19 02:31:00,50.0,41.0,29.89,SW,220,13.0,24.0,71,0.00,,,0.00,,2013-02-19 10:31:00,
2013-02-19 02:41:00,50.0,41.0,29.89,SW,220,13.0,24.0,71,0.00,,,0.00,,2013-02-19 10:41:00,
2013-02-19 02:52:00,50.0,41.0,29.89,WSW,249,12.0,24.0,71,0.00,,,0.00,,2013-02-19 10:52:00,
2013-02-19 03:01:00,50.0,40.0,29.89,WSW,246,13.0,23.0,69,0.00,,,0.00,,2013-02-19 11:01:00,
2013-02-19 03:11:00,50.0,40.0,29.89,WSW,246,13.0,23.0,69,0.00,,,0.00,,2013-02-19 11:11:00,
2013-02-19 03:21:00,50.0,40.0,29.88,SW,214,8.0,19.0,68,0.00,,,0.00,,2013-02-19 11:21:00,
2013-02-19 03:31:00,50.0,40.0,29.88,West,265,12.0,22.0,68,0.00,,,0.00,,2013-02-19 11:31:00,
2013-02-19 03:42:00,50.0,40.0,29.88,West,265,12.0,22.0,68,0.00,,,0.00,,2013-02-19 11:42:00,
2013-02-19 03:52:00,50.0,40.0,29.88,SW,218,9.0,20.0,68,0.00,,,0.00,,2013-02-19 11:52:00,
2013-02-19 04:01:00,50.0,40.0,29.88,SSW,194,8.0,24.0,68,0.00,,,0.00,,2013-02-19 12:01:00,
2013-02-19 04:12:00,50.0,40.0,29.88,SSW,194,8.0,24.0,68,0.00,,,0.00,,2013-02-19 12:12:00,
2013-02-19 04:21:00,50.0,40.0,29.88,SSW,196,14.0,29.0,68,0.00,,,0.00,,2013-02-19 12:21:00,
2013-02-19 04:32:00,50.0,40.0,29.88,SSW,205,15.0,26.0,68,0.00,,,0.00,,2013-02-19 12:32:00,
2013-02-19 04:42:00,50.0,40.0,29.88,SSW,205,15.0,26.0,68,0.00,,,0.00,,2013-02-19 12:42:00,
2013-02-19 04:52:00,50.0,39.0,29.88,WSW,242,11.0,23.0,67,0.00,,,0.00,,2013-02-19 12:52:00,
2013-02-19 05:01:00,49.0,39.0,29.88,SW,223,18.0,24.0,69,0.00,,,0.00,,2013-02-19 13:01:00,
2013-02-19 05:11:00,49.0,39.0,29.88,SW,223,18.0,24.0,69,0.00,,,0.00,,2013-02-19 13:11:00,
2013-02-19 05:22:00,49.0,40.0,29.87,West,262,14.0,28.0,70,0.00,,,0.00,,2013-02-19 13:22:00,
2013-02-19 05:31:00,49.0,40.0,29.87,West,261,9.0,20.0,70,0.00,,,0.00,,2013-02-19 13:31:00,
2013-02-19 05:41:00,49.0,40.0,29.87,West,261,9.0,20.0,70,0.00,,,0.00,,2013-02-19 13:41:00,
2013-02-19 05:52:00,49.0,40.0,29.88,West,265,11.0,23.0,71,0.00,,,0.00,,2013-02-19 13:52:00,
2013-02-19 06:01:00,49.0,40.0,29.88,SSW,201,13.0,22.0,72,0.00,,,0.00,,2013-02-19 14:01:00,
2013-02-19 06:11:00,49.0,40.0,29.88,SSW,201,13.0,22.0,72,0.00,,,0.00,,2013-02-19 14:11:00,
2013-02-19 06:21:00,49.0,40.0,29.88,WSW,240,12.0,22.0,72,0.00,,,0.00,,2013-02-19 14:21:00,
2013-02-19 06:32:00,49.0,40.0,29.88,WSW,244,8.0,22.0,71,0.00,,,0.00,,2013-02-19 14:32:00,
2013-02-19 06:41:00,49.0,40.0,29.88,WSW,244,8.0,22.0,71,0.00,,,0.00,,2013-02-19 14:41:00,
2013-02-19 06:52:00,50.0,39.0,29.88,SW,225,10.0,23.0,66,0.00,,,0.00,,2013-02-19 14:52:00,
2013-02-19 07:01:00,49.0,38.0,29.87,SW,222,10.0,17.0,65,0.00,,,0.00,,2013-02-19 15:01:00,
2013-02-19 07:11:00,49.0,38.0,29.87,SW,222,10.0,17.0,65,0.00,,,0.00,,2013-02-19 15:11:00,
2013-02-19 07:21:00,49.0,39.0,29.87,WSW,257,10.0,21.0,67,0.00,,,0.00,,2013-02-19 15:21:00,
2013-02-19 07:31:00,49.0,39.0,29.87,SW,221,14.0,22.0,68,0.00,,,0.00,,2013-02-19 15:31:00,
2013-02-19 07:41:00,49.0,39.0,29.87,SW,221,14.0,22.0,68,0.00,,,0.00,,2013-02-19 15:41:00,
2013-02-19 07:52:00,49.0,39.0,29.88,WSW,247,13.0,20.0,69,0.00,,,0.00,,2013-02-19 15:52:00,
2013-02-19 08:01:00,49.0,40.0,29.88,West,267,12.0,23.0,71,0.00,,,0.00,,2013-02-19 16:01:00,
2013-02-19 08:11:00,49.0,40.0,29.88,West,267,12.0,23.0,71,0.00,,,0.00,,2013-02-19 16:11:00,
2013-02-19 08:21:00,50.0,41.0,29.88,WNW,287,15.0,21.0,70,0.00,,,0.00,,2013-02-19 16:21:00,
2013-02-19 08:31:00,51.0,41.0,29.88,SW,224,14.0,22.0,69,0.00,,,0.00,,2013-02-19 16:31:00,
2013-02-19 08:41:00,51.0,41.0,29.88,SW,224,14.0,22.0,69,0.00,,,0.00,,2013-02-19 16:41:00,
2013-02-19 08:52:00,51.0,41.0,29.88,WSW,255,15.0,27.0,68,0.00,,,0.00,,2013-02-19 16:52:00,
2013-02-19 09:01:00,52.0,42.0,29.88,SSW,211,11.0,23.0,68,0.00,,,0.00,,2013-02-19 17:01:00,
2013-02-19 09:11:00,52.0,42.0,29.88,SSW,211,11.0,23.0,68,0.00,,,0.00,,2013-02-19 17:11:00,
2013-02-19 09:21:00,52.0,41.0,29.89,SSW,206,14.0,23.0,65,0.00,,,0.00,,2013-02-19 17:21:00,
2013-02-19 09:31:00,52.0,41.0,29.88,SSW,213,13.0,18.0,65,0.00,,,0.00,,2013-02-19 17:31:00,
2013-02-19 09:41:00,52.0,41.0,29.88,SSW,213,13.0,18.0,65,0.00,,,0.00,,2013-02-19 17:41:00,
2013-02-19 09:52:00,54.0,42.0,29.87,SW,225,13.0,21.0,63,0.00,,,0.00,,2013-02-19 17:52:00,
2013-02-19 10:01:00,54.0,41.0,29.88,SSW,213,14.0,21.0,61,0.00,,,0.00,,2013-02-19 18:01:00,
2013-02-19 10:11:00,54.0,41.0,29.88,SSW,213,14.0,21.0,61,0.00,,,0.00,,2013-02-19 18:11:00,
2013-02-19 10:21:00,55.0,41.0,29.88,SSW,210,9.0,21.0,60,0.00,,,0.00,,2013-02-19 18:21:00,
2013-02-19 10:31:00,55.0,41.0,29.87,South,188,9.0,19.0,60,0.00,,,0.00,,2013-02-19 18:31:00,
2013-02-19 10:41:00,55.0,40.0,29.88,SSW,203,10.0,18.0,57,0.00,,,0.00,,2013-02-19 18:41:00,
2013-02-19 10:52:00,55.0,40.0,29.88,SSW,203,10.0,18.0,57,0.00,,,0.00,,2013-02-19 18:52:00,
2013-02-19 11:01:00,55.0,41.0,29.86,WNW,282,7.0,18.0,59,0.00,,,0.00,,2013-02-19 19:01:00,
2013-02-19 11:11:00,55.0,41.0,29.86,WNW,282,7.0,18.0,59,0.00,,,0.00,,2013-02-19 19:11:00,
2013-02-19 11:21:00,56.0,42.0,29.86,SW,236,9.0,17.0,60,0.00,,,0.00,,2013-02-19 19:21:00,
2013-02-19 11:31:00,57.0,40.0,29.86,SSW,205,8.0,17.0,53,0.00,,,0.00,,2013-02-19 19:31:00,
2013-02-19 11:41:00,57.0,40.0,29.86,SSW,205,8.0,17.0,53,0.00,,,0.00,,2013-02-19 19:41:00,
2013-02-19 11:52:00,57.0,39.0,29.86,SW,229,7.0,17.0,51,0.00,,,0.00,,2013-02-19 19:52:00,
2013-02-19 12:01:00,58.0,40.0,29.86,WSW,240,7.0,15.0,51,0.00,,,0.00,,2013-02-19 20:01:00,
2013-02-19 12:11:00,58.0,40.0,29.86,WSW,240,7.0,15.0,51,0.00,,,0.00,,2013-02-19 20:11:00,
2013-02-19 12:21:00,57.0,38.0,29.84,South,186,4.0,15.0,48,0.00,,,0.00,,2013-02-19 20:21:00,
2013-02-19 12:31:00,61.0,40.0,29.82,South,178,3.0,10.0,45,0.00,,,0.00,,2013-02-19 20:31:00,
2013-02-19 12:41:00,61.0,40.0,29.82,South,178,3.0,10.0,45,0.00,,,0.00,,2013-02-19 20:41:00,
2013-02-19 12:52:00,58.0,37.0,29.83,South,173,6.0,14.0,46,0.00,,,0.00,,2013-02-19 20:52:00,
2013-02-19 13:01:00,59.0,38.0,29.82,SSW,207,3.0,10.0,46,0.00,,,0.00,,2013-02-19 21:01:00,
2013-02-19 13:11:00,59.0,38.0,29.82,SSW,207,3.0,10.0,46,0.00,,,0.00,,2013-02-19 21:11:00,
2013-02-19 13:21:00,59.0,40.0,29.81,SSE,168,4.0,13.0,49,0.00,,,0.00,,2013-02-19 21:21:00,
2013-02-19 13:31:00,58.0,41.0,29.81,South,176,4.0,19.0,54,0.00,,,0.00,,2013-02-19 21:31:00,
2013-02-19 13:42:00,58.0,41.0,29.81,South,176,4.0,19.0,54,0.00,,,0.00,,2013-02-19 21:42:00,
2013-02-19 13:51:00,58.0,43.0,29.80,South,173,7.0,20.0,58,0.00,,,0.00,,2013-02-19 21:51:00,
2013-02-19 14:01:00,56.0,44.0,29.80,South,174,11.0,21.0,63,0.00,,,0.00,,2013-02-19 22:01:00,
2013-02-19 14:11:00,56.0,44.0,29.80,South,174,11.0,21.0,63,0.00,,,0.00,,2013-02-19 22:11:00,
2013-02-19 14:21:00,54.0,43.0,29.79,SSE,162,12.0,19.0,65,0.00,,,0.00,,2013-02-19 22:21:00,
2013-02-19 14:31:00,54.0,42.0,29.79,SSW,196,9.0,19.0,63,0.00,,,0.00,,2013-02-19 22:31:00,
2013-02-19 14:41:00,54.0,42.0,29.79,SSW,196,9.0,19.0,63,0.00,,,0.00,,2013-02-19 22:41:00,
2013-02-19 14:52:00,53.0,42.0,29.79,SSW,192,9.0,20.0,67,0.00,,,0.00,,2013-02-19 22:52:00,
2013-02-19 15:01:00,53.0,43.0,29.78,South,182,10.0,18.0,69,0.00,,,0.00,,2013-02-19 23:01:00,
2013-02-19 15:11:00,53.0,43.0,29.78,South,182,10.0,18.0,69,0.00,,,0.00,,2013-02-19 23:11:00,
2013-02-19 15:21:00,53.0,43.0,29.77,SE,146,7.0,16.0,70,0.00,,,0.00,,2013-02-19 23:21:00,
2013-02-19 15:31:00,53.0,43.0,29.77,SW,227,7.0,16.0,70,0.00,,,0.00,,2013-02-19 23:31:00,
2013-02-19 15:41:00,53.0,43.0,29.77,SW,227,7.0,16.0,70,0.00,,,0.00,,2013-02-19 23:41:00,
2013-02-19 15:52:00,53.0,44.0,29.77,South,183,6.0,15.0,71,0.00,,,0.00,,2013-02-19 23:52:00,
2013-02-19 16:01:00,53.0,45.0,29.77,SSW,200,4.0,11.0,73,0.00,,,0.00,,2013-02-20 00:01:00,
2013-02-19 16:11:00,53.0,45.0,29.77,SSW,200,4.0,11.0,73,0.00,,,0.00,,2013-02-20 00:11:00,
2013-02-19 16:21:00,51.0,45.0,29.76,South,190,5.0,13.0,79,0.01,,,0.01,,2013-02-20 00:21:00,
2013-02-19 16:31:00,49.0,44.0,29.75,SSW,194,4.0,12.0,84,0.01,,,0.01,,2013-02-20 00:31:00,
2013-02-19 16:41:00,49.0,44.0,29.75,SSW,194,4.0,12.0,84,0.01,,,0.01,,2013-02-20 00:41:00,
2013-02-19 16:52:00,49.0,45.0,29.74,SSW,196,4.0,10.0,85,0.01,,,0.01,,2013-02-20 00:52:00,
2013-02-19 17:02:00,48.0,44.0,29.74,SSW,203,2.0,5.0,86,0.01,,,0.01,,2013-02-20 01:02:00,
2013-02-19 17:11:00,48.0,44.0,29.74,SSW,203,2.0,5.0,86,0.01,,,0.01,,2013-02-20 01:11:00,
2013-02-19 17:21:00,48.0,44.0,29.73,SW,226,2.0,5.0,87,0.03,,,0.04,,2013-02-20 01:21:00,
2013-02-19 17:31:00,48.0,45.0,29.73,SSW,205,4.0,7.0,88,0.08,,,0.09,,2013-02-20 01:31:00,
2013-02-19 17:41:00,48.0,45.0,29.73,SSW,205,4.0,7.0,88,0.08,,,0.09,,2013-02-20 01:41:00,
2013-02-19 17:52:00,47.0,43.0,29.74,SSE,165,4.0,17.0,87,0.11,,,0.12,,2013-02-20 01:52:00,
2013-02-19 18:01:00,46.0,42.0,29.73,SSW,205,7.0,20.0,85,0.15,,,0.16,,2013-02-20 02:01:00,
2013-02-19 18:11:00,46.0,42.0,29.73,SSW,205,7.0,20.0,85,0.15,,,0.16,,2013-02-20 02:11:00,
2013-02-19 18:21:00,46.0,40.0,29.72,SSE,166,16.0,27.0,80,0.12,,,0.16,,2013-02-20 02:21:00,
2013-02-19 18:31:00,46.0,40.0,29.72,SSW,205,8.0,31.0,79,0.07,,,0.16,,2013-02-20 02:31:00,
2013-02-19 18:41:00,46.0,40.0,29.72,SSW,205,8.0,31.0,79,0.07,,,0.16,,2013-02-20 02:41:00,
2013-02-19 18:52:00,47.0,40.0,29.70,SW,224,10.0,23.0,76,0.04,,,0.16,,2013-02-20 02:52:00,
2013-02-19 19:01:00,47.0,38.0,29.70,West,273,12.0,28.0,72,0.00,,,0.16,,2013-02-20 03:01:00,
2013-02-19 19:11:00,47.0,38.0,29.70,West,273,12.0,28.0,72,0.00,,,0.16,,2013-02-20 03:11:00,
2013-02-19 19:21:00,47.0,39.0,29.71,SSW,209,11.0,24.0,74,0.00,,,0.16,,2013-02-20 03:21:00,
2013-02-19 19:31:00,47.0,39.0,29.72,SSW,201,7.0,20.0,74,0.00,,,0.16,,2013-02-20 03:31:00,
2013-02-19 19:41:00,47.0,39.0,29.72,SSW,201,7.0,20.0,74,0.00,,,0.16,,2013-02-20 03:41:00,
2013-02-19 19:52:00,46.0,39.0,29.72,SSE,155,2.0,14.0,77,0.00,,,0.16,,2013-02-20 03:52:00,
2013-02-19 20:01:00,46.0,40.0,29.72,SW,219,1.0,6.0,78,0.00,,,0.16,,2013-02-20 04:01:00,
2013-02-19 20:11:00,46.0,40.0,29.72,SW,219,1.0,6.0,78,0.00,,,0.16,,2013-02-20 04:11:00,
2013-02-19 20:21:00,46.0,40.0,29.72,South,172,2.0,5.0,79,0.01,,,0.17,,2013-02-20 04:21:00,
2013-02-19 20:31:00,45.0,40.0,29.72,South,184,4.0,9.0,81,0.02,,,0.18,,2013-02-20 04:31:00,
2013-02-19 20:41:00,45.0,40.0,29.72,South,184,4.0,9.0,81,0.02,,,0.18,,2013-02-20 04:41:00,
2013-02-19 20:52:00,45.0,40.0,29.72,SE,130,4.0,11.0,83,0.02,,,0.18,,2013-02-20 04:52:00,
2013-02-19 21:01:00,45.0,40.0,29.73,ESE,116,2.0,12.0,83,0.02,,,0.18,,2013-02-20 05:01:00,
2013-02-19 21:12:00,45.0,40.0,29.73,ESE,116,2.0,12.0,83,0.02,,,0.18,,2013-02-20 05:12:00,
2013-02-19 21:22:00,45.0,40.0,29.73,SE,134,6.0,15.0,83,0.01,,,0.18,,2013-02-20 05:22:00,
2013-02-19 21:31:00,44.0,39.0,29.74,SSE,167,6.0,19.0,83,0.02,,,0.20,,2013-02-20 05:31:00,
2013-02-19 21:42:00,44.0,39.0,29.74,SSE,167,6.0,19.0,83,0.02,,,0.20,,2013-02-20 05:42:00,
2013-02-19 21:52:00,44.0,38.0,29.72,WSW,256,11.0,20.0,79,0.02,,,0.20,,2013-02-20 05:52:00,
2013-02-19 22:01:00,44.0,38.0,29.73,SSW,207,5.0,16.0,78,0.02,,,0.20,,2013-02-20 06:01:00,
2013-02-19 22:11:00,44.0,37.0,29.73,WSW,252,7.0,20.0,77,0.02,,,0.20,,2013-02-20 06:11:00,
2013-02-19 22:21:00,44.0,37.0,29.73,WSW,252,7.0,20.0,77,0.02,,,0.20,,2013-02-20 06:21:00,
2013-02-19 22:31:00,44.0,38.0,29.73,North,5,3.0,12.0,78,0.00,,,0.20,,2013-02-20 06:31:00,
2013-02-19 22:41:00,44.0,38.0,29.73,North,5,3.0,12.0,78,0.00,,,0.20,,2013-02-20 06:41:00,
2013-02-19 22:52:00,44.0,38.0,29.72,SW,215,11.0,21.0,78,0.00,,,0.20,,2013-02-20 06:52:00,
2013-02-19 23:01:00,44.0,38.0,29.73,SSW,192,9.0,21.0,78,0.00,,,0.20,,2013-02-20 07:01:00,
2013-02-19 23:11:00,44.0,38.0,29.73,SSW,192,9.0,21.0,78,0.00,,,0.20,,2013-02-20 07:11:00,
2013-02-19 23:21:00,44.0,37.0,29.73,SSW,211,11.0,21.0,77,0.01,,,0.21,,2013-02-20 07:21:00,
2013-02-19 23:31:00,43.0,37.0,29.73,SE,124,7.0,11.0,78,0.01,,,0.21,,2013-02-20 07:31:00,
2013-02-19 23:41:00,43.0,37.0,29.73,SE,124,7.0,11.0,78,0.01,,,0.21,,2013-02-20 07:41:00,
2013-02-19 23:52:00,44.0,38.0,29.73,South,184,4.0,16.0,78,0.01,,,0.21,,2013-02-20 07:52:00,